sensor_id;sensor_type;location;lat;lon;timestamp;P1;durP1;ratioP1;P2;durP2;ratioP2
809;SDS011;387;48.772;9.186;2023-04-05T00:01:27;13.13;;;7.00;;
809;SDS011;387;48.772;9.186;2023-04-05T00:03:54;12.83;;;6.67;;
809;SDS011;387;48.772;9.186;2023-04-05T00:06:24;12.23;;;7.30;;
809;SDS011;387;48.772;9.186;2023-04-05T00:08:51;11.00;;;6.40;;
809;SDS011;387;48.772;9.186;2023-04-05T00:11:19;10.80;;;6.20;;
809;SDS011;387;48.772;9.186;2023-04-05T00:13:46;10.47;;;5.87;;
809;SDS011;387;48.772;9.186;2023-04-05T00:16:12;11.97;;;6.47;;
809;SDS011;387;48.772;9.186;2023-04-05T00:18:38;12.47;;;6.80;;
809;SDS011;387;48.772;9.186;2023-04-05T00:21:10;10.73;;;6.20;;
809;SDS011;387;48.772;9.186;2023-04-05T00:23:38;11.43;;;7.03;;
809;SDS011;387;48.772;9.186;2023-04-05T00:26:05;8.67;;;5.63;;
809;SDS011;387;48.772;9.186;2023-04-05T00:28:31;10.60;;;5.87;;
809;SDS011;387;48.772;9.186;2023-04-05T00:30:57;13.37;;;6.07;;
809;SDS011;387;48.772;9.186;2023-04-05T00:33:22;11.20;;;6.23;;
809;SDS011;387;48.772;9.186;2023-04-05T00:35:48;10.07;;;6.00;;
809;SDS011;387;48.772;9.186;2023-04-05T00:38:13;10.70;;;6.90;;
809;SDS011;387;48.772;9.186;2023-04-05T00:40:39;15.40;;;6.27;;
809;SDS011;387;48.772;9.186;2023-04-05T00:43:05;10.77;;;5.90;;
809;SDS011;387;48.772;9.186;2023-04-05T00:45:30;10.77;;;6.20;;
809;SDS011;387;48.772;9.186;2023-04-05T00:47:56;11.67;;;6.47;;
809;SDS011;387;48.772;9.186;2023-04-05T00:50:21;11.40;;;6.23;;
809;SDS011;387;48.772;9.186;2023-04-05T00:52:48;11.25;;;7.05;;
809;SDS011;387;48.772;9.186;2023-04-05T00:55:14;11.57;;;6.55;;
809;SDS011;387;48.772;9.186;2023-04-05T00:57:41;10.15;;;6.30;;
809;SDS011;387;48.772;9.186;2023-04-05T01:00:09;13.40;;;6.15;;
809;SDS011;387;48.772;9.186;2023-04-05T01:02:39;9.70;;;6.07;;
809;SDS011;387;48.772;9.186;2023-04-05T01:05:23;12.10;;;6.67;;
809;SDS011;387;48.772;9.186;2023-04-05T01:08:06;11.95;;;6.03;;
809;SDS011;387;48.772;9.186;2023-04-05T01:10:53;12.15;;;7.00;;
809;SDS011;387;48.772;9.186;2023-04-05T01:13:22;10.18;;;6.65;;
809;SDS011;387;48.772;9.186;2023-04-05T01:15:49;12.23;;;6.28;;
809;SDS011;387;48.772;9.186;2023-04-05T01:18:15;14.07;;;6.23;;
809;SDS011;387;48.772;9.186;2023-04-05T01:20:45;11.70;;;6.97;;
809;SDS011;387;48.772;9.186;2023-04-05T01:31:49;10.57;;;6.00;;
809;SDS011;387;48.772;9.186;2023-04-05T01:37:01;11.52;;;6.95;;
809;SDS011;387;48.772;9.186;2023-04-05T01:39:29;11.98;;;6.43;;
809;SDS011;387;48.772;9.186;2023-04-05T01:41:59;11.52;;;6.97;;
809;SDS011;387;48.772;9.186;2023-04-05T01:44:26;12.13;;;6.63;;
809;SDS011;387;48.772;9.186;2023-04-05T01:46:52;11.40;;;6.90;;
809;SDS011;387;48.772;9.186;2023-04-05T01:49:18;14.30;;;6.83;;
809;SDS011;387;48.772;9.186;2023-04-05T01:51:44;10.95;;;6.22;;
809;SDS011;387;48.772;9.186;2023-04-05T01:54:10;13.47;;;7.23;;
809;SDS011;387;48.772;9.186;2023-04-05T01:56:35;12.57;;;6.70;;
809;SDS011;387;48.772;9.186;2023-04-05T01:59:01;11.13;;;6.20;;
809;SDS011;387;48.772;9.186;2023-04-05T02:01:27;11.50;;;7.30;;
809;SDS011;387;48.772;9.186;2023-04-05T02:03:52;8.70;;;6.30;;
809;SDS011;387;48.772;9.186;2023-04-05T02:06:18;12.20;;;7.80;;
809;SDS011;387;48.772;9.186;2023-04-05T02:08:43;11.93;;;6.23;;
809;SDS011;387;48.772;9.186;2023-04-05T02:11:09;12.23;;;6.50;;
809;SDS011;387;48.772;9.186;2023-04-05T02:13:35;12.10;;;6.87;;
809;SDS011;387;48.772;9.186;2023-04-05T02:16:01;11.70;;;6.23;;
809;SDS011;387;48.772;9.186;2023-04-05T02:18:26;14.33;;;7.10;;
809;SDS011;387;48.772;9.186;2023-04-05T02:21:02;10.20;;;6.97;;
809;SDS011;387;48.772;9.186;2023-04-05T02:23:29;14.65;;;7.45;;
809;SDS011;387;48.772;9.186;2023-04-05T02:25:55;9.98;;;6.40;;
809;SDS011;387;48.772;9.186;2023-04-05T02:28:21;13.85;;;7.00;;
809;SDS011;387;48.772;9.186;2023-04-05T02:30:46;11.00;;;6.80;;
809;SDS011;387;48.772;9.186;2023-04-05T02:33:12;10.37;;;6.37;;
809;SDS011;387;48.772;9.186;2023-04-05T02:35:38;13.33;;;7.33;;
809;SDS011;387;48.772;9.186;2023-04-05T02:38:04;14.30;;;7.40;;
809;SDS011;387;48.772;9.186;2023-04-05T02:40:30;13.50;;;7.60;;
809;SDS011;387;48.772;9.186;2023-04-05T02:42:56;13.82;;;7.93;;
809;SDS011;387;48.772;9.186;2023-04-05T02:45:22;13.43;;;7.70;;
809;SDS011;387;48.772;9.186;2023-04-05T02:47:47;13.37;;;7.43;;
809;SDS011;387;48.772;9.186;2023-04-05T02:50:13;12.60;;;8.40;;
809;SDS011;387;48.772;9.186;2023-04-05T02:52:39;11.50;;;7.03;;
809;SDS011;387;48.772;9.186;2023-04-05T02:55:04;9.43;;;6.63;;
809;SDS011;387;48.772;9.186;2023-04-05T02:57:30;11.88;;;7.05;;
809;SDS011;387;48.772;9.186;2023-04-05T02:59:56;12.40;;;7.67;;
809;SDS011;387;48.772;9.186;2023-04-05T03:02:21;10.40;;;7.33;;
809;SDS011;387;48.772;9.186;2023-04-05T03:04:47;12.40;;;7.77;;
809;SDS011;387;48.772;9.186;2023-04-05T03:07:16;10.75;;;7.10;;
809;SDS011;387;48.772;9.186;2023-04-05T03:09:43;11.27;;;7.63;;
809;SDS011;387;48.772;9.186;2023-04-05T03:12:10;17.45;;;8.63;;
809;SDS011;387;48.772;9.186;2023-04-05T03:14:36;14.20;;;7.33;;
809;SDS011;387;48.772;9.186;2023-04-05T03:17:02;9.73;;;6.82;;
809;SDS011;387;48.772;9.186;2023-04-05T03:19:28;12.87;;;7.07;;
809;SDS011;387;48.772;9.186;2023-04-05T03:21:54;11.87;;;7.13;;
809;SDS011;387;48.772;9.186;2023-04-05T03:24:19;12.80;;;7.13;;
809;SDS011;387;48.772;9.186;2023-04-05T03:26:45;13.23;;;7.00;;
809;SDS011;387;48.772;9.186;2023-04-05T03:29:12;17.50;;;8.00;;
809;SDS011;387;48.772;9.186;2023-04-05T03:31:38;12.33;;;7.13;;
809;SDS011;387;48.772;9.186;2023-04-05T03:34:03;11.57;;;7.70;;
809;SDS011;387;48.772;9.186;2023-04-05T03:36:29;12.87;;;7.07;;
809;SDS011;387;48.772;9.186;2023-04-05T03:39:09;12.73;;;7.45;;
809;SDS011;387;48.772;9.186;2023-04-05T03:41:38;13.68;;;7.65;;
809;SDS011;387;48.772;9.186;2023-04-05T03:44:04;13.50;;;8.50;;
809;SDS011;387;48.772;9.186;2023-04-05T03:46:30;14.10;;;7.65;;
809;SDS011;387;48.772;9.186;2023-04-05T03:48:56;17.07;;;7.70;;
809;SDS011;387;48.772;9.186;2023-04-05T03:51:23;11.55;;;7.38;;
809;SDS011;387;48.772;9.186;2023-04-05T03:53:49;13.23;;;7.00;;
809;SDS011;387;48.772;9.186;2023-04-05T03:56:15;11.95;;;7.13;;
809;SDS011;387;48.772;9.186;2023-04-05T03:58:41;16.08;;;7.88;;
809;SDS011;387;48.772;9.186;2023-04-05T04:01:07;15.00;;;8.73;;
809;SDS011;387;48.772;9.186;2023-04-05T04:03:33;14.77;;;8.60;;
809;SDS011;387;48.772;9.186;2023-04-05T04:06:01;13.57;;;8.10;;
809;SDS011;387;48.772;9.186;2023-04-05T04:08:27;12.48;;;7.55;;
809;SDS011;387;48.772;9.186;2023-04-05T04:10:53;15.53;;;8.80;;
809;SDS011;387;48.772;9.186;2023-04-05T04:13:18;17.63;;;8.30;;
809;SDS011;387;48.772;9.186;2023-04-05T04:15:44;12.37;;;7.73;;
809;SDS011;387;48.772;9.186;2023-04-05T04:18:10;12.95;;;7.68;;
809;SDS011;387;48.772;9.186;2023-04-05T04:20:36;12.23;;;7.80;;
809;SDS011;387;48.772;9.186;2023-04-05T04:23:02;15.63;;;7.75;;
809;SDS011;387;48.772;9.186;2023-04-05T04:25:29;14.10;;;8.30;;
809;SDS011;387;48.772;9.186;2023-04-05T04:27:55;16.37;;;8.53;;
809;SDS011;387;48.772;9.186;2023-04-05T04:30:20;12.50;;;7.78;;
809;SDS011;387;48.772;9.186;2023-04-05T04:32:46;16.53;;;7.70;;
809;SDS011;387;48.772;9.186;2023-04-05T04:35:15;14.75;;;8.10;;
809;SDS011;387;48.772;9.186;2023-04-05T04:37:45;13.40;;;8.05;;
809;SDS011;387;48.772;9.186;2023-04-05T04:40:15;13.73;;;7.93;;
809;SDS011;387;48.772;9.186;2023-04-05T04:42:44;17.40;;;9.40;;
809;SDS011;387;48.772;9.186;2023-04-05T04:45:16;18.23;;;8.38;;
809;SDS011;387;48.772;9.186;2023-04-05T04:47:43;13.57;;;7.82;;
809;SDS011;387;48.772;9.186;2023-04-05T04:50:11;12.52;;;7.90;;
809;SDS011;387;48.772;9.186;2023-04-05T04:52:38;14.02;;;8.23;;
809;SDS011;387;48.772;9.186;2023-04-05T04:55:05;18.38;;;8.52;;
809;SDS011;387;48.772;9.186;2023-04-05T04:57:32;15.75;;;9.15;;
809;SDS011;387;48.772;9.186;2023-04-05T04:59:57;14.67;;;8.67;;
809;SDS011;387;48.772;9.186;2023-04-05T05:02:23;20.13;;;9.47;;
809;SDS011;387;48.772;9.186;2023-04-05T05:04:49;16.75;;;8.38;;
809;SDS011;387;48.772;9.186;2023-04-05T05:07:15;18.10;;;8.70;;
809;SDS011;387;48.772;9.186;2023-04-05T05:09:41;17.60;;;9.23;;
809;SDS011;387;48.772;9.186;2023-04-05T05:12:07;15.25;;;8.93;;
809;SDS011;387;48.772;9.186;2023-04-05T05:14:33;14.07;;;8.20;;
809;SDS011;387;48.772;9.186;2023-04-05T05:16:59;16.10;;;9.48;;
809;SDS011;387;48.772;9.186;2023-04-05T05:19:24;21.60;;;9.30;;
809;SDS011;387;48.772;9.186;2023-04-05T05:21:50;16.10;;;8.80;;
809;SDS011;387;48.772;9.186;2023-04-05T05:24:17;13.95;;;8.77;;
809;SDS011;387;48.772;9.186;2023-04-05T05:26:43;20.73;;;9.67;;
809;SDS011;387;48.772;9.186;2023-04-05T05:29:09;19.00;;;9.47;;
809;SDS011;387;48.772;9.186;2023-04-05T05:31:35;18.27;;;9.10;;
809;SDS011;387;48.772;9.186;2023-04-05T05:34:00;18.10;;;8.87;;
809;SDS011;387;48.772;9.186;2023-04-05T05:36:26;15.60;;;9.50;;
809;SDS011;387;48.772;9.186;2023-04-05T05:38:52;17.83;;;10.23;;
809;SDS011;387;48.772;9.186;2023-04-05T05:41:18;18.20;;;10.30;;
809;SDS011;387;48.772;9.186;2023-04-05T05:43:45;15.50;;;9.23;;
809;SDS011;387;48.772;9.186;2023-04-05T05:46:10;19.80;;;9.27;;
809;SDS011;387;48.772;9.186;2023-04-05T05:48:36;19.13;;;9.80;;
809;SDS011;387;48.772;9.186;2023-04-05T05:51:02;14.47;;;9.00;;
809;SDS011;387;48.772;9.186;2023-04-05T05:53:33;18.55;;;11.13;;
809;SDS011;387;48.772;9.186;2023-04-05T05:56:00;18.40;;;9.52;;
809;SDS011;387;48.772;9.186;2023-04-05T05:58:26;16.30;;;9.40;;
809;SDS011;387;48.772;9.186;2023-04-05T06:00:51;17.43;;;9.80;;
809;SDS011;387;48.772;9.186;2023-04-05T06:03:20;25.45;;;10.50;;
809;SDS011;387;48.772;9.186;2023-04-05T06:05:54;21.35;;;10.85;;
809;SDS011;387;48.772;9.186;2023-04-05T06:08:20;21.88;;;9.50;;
809;SDS011;387;48.772;9.186;2023-04-05T06:10:48;25.98;;;9.98;;
809;SDS011;387;48.772;9.186;2023-04-05T06:13:14;17.50;;;9.80;;
809;SDS011;387;48.772;9.186;2023-04-05T06:15:43;20.13;;;11.05;;
809;SDS011;387;48.772;9.186;2023-04-05T06:18:11;19.38;;;10.05;;
809;SDS011;387;48.772;9.186;2023-04-05T06:20:36;20.70;;;11.20;;
809;SDS011;387;48.772;9.186;2023-04-05T06:23:07;16.63;;;9.65;;
809;SDS011;387;48.772;9.186;2023-04-05T06:25:34;16.50;;;10.00;;
809;SDS011;387;48.772;9.186;2023-04-05T06:28:01;20.93;;;9.50;;
809;SDS011;387;48.772;9.186;2023-04-05T06:30:28;20.48;;;10.52;;
809;SDS011;387;48.772;9.186;2023-04-05T06:32:54;20.90;;;10.47;;
809;SDS011;387;48.772;9.186;2023-04-05T06:35:20;19.07;;;10.40;;
809;SDS011;387;48.772;9.186;2023-04-05T06:37:46;20.65;;;10.77;;
809;SDS011;387;48.772;9.186;2023-04-05T06:40:12;49.55;;;14.15;;
809;SDS011;387;48.772;9.186;2023-04-05T06:42:38;17.52;;;10.15;;
809;SDS011;387;48.772;9.186;2023-04-05T06:45:04;24.90;;;10.83;;
809;SDS011;387;48.772;9.186;2023-04-05T06:47:34;20.27;;;10.45;;
809;SDS011;387;48.772;9.186;2023-04-05T06:50:01;21.00;;;11.57;;
809;SDS011;387;48.772;9.186;2023-04-05T06:52:27;21.13;;;11.95;;
809;SDS011;387;48.772;9.186;2023-04-05T06:54:53;30.53;;;15.90;;
809;SDS011;387;48.772;9.186;2023-04-05T06:57:20;24.13;;;11.77;;
809;SDS011;387;48.772;9.186;2023-04-05T06:59:45;22.27;;;11.80;;
809;SDS011;387;48.772;9.186;2023-04-05T07:02:11;22.90;;;11.07;;
809;SDS011;387;48.772;9.186;2023-04-05T07:04:37;21.97;;;12.40;;
809;SDS011;387;48.772;9.186;2023-04-05T07:07:03;23.30;;;13.20;;
809;SDS011;387;48.772;9.186;2023-04-05T07:09:33;21.02;;;10.82;;
809;SDS011;387;48.772;9.186;2023-04-05T07:11:59;19.60;;;11.20;;
809;SDS011;387;48.772;9.186;2023-04-05T07:14:30;19.90;;;10.67;;
809;SDS011;387;48.772;9.186;2023-04-05T07:17:00;17.00;;;11.27;;
809;SDS011;387;48.772;9.186;2023-04-05T07:19:28;19.80;;;10.77;;
809;SDS011;387;48.772;9.186;2023-04-05T07:21:54;32.30;;;11.87;;
809;SDS011;387;48.772;9.186;2023-04-05T07:24:20;20.60;;;10.23;;
809;SDS011;387;48.772;9.186;2023-04-05T07:26:45;23.73;;;12.00;;
809;SDS011;387;48.772;9.186;2023-04-05T07:29:11;18.17;;;11.13;;
809;SDS011;387;48.772;9.186;2023-04-05T07:31:37;20.97;;;11.83;;
809;SDS011;387;48.772;9.186;2023-04-05T07:34:03;22.70;;;10.67;;
809;SDS011;387;48.772;9.186;2023-04-05T07:36:29;23.00;;;11.90;;
809;SDS011;387;48.772;9.186;2023-04-05T07:38:56;20.40;;;12.00;;
809;SDS011;387;48.772;9.186;2023-04-05T07:41:23;21.67;;;12.10;;
809;SDS011;387;48.772;9.186;2023-04-05T07:43:49;22.63;;;12.10;;
809;SDS011;387;48.772;9.186;2023-04-05T07:46:15;20.37;;;12.10;;
809;SDS011;387;48.772;9.186;2023-04-05T07:48:41;22.33;;;12.20;;
809;SDS011;387;48.772;9.186;2023-04-05T07:51:08;28.77;;;12.47;;
809;SDS011;387;48.772;9.186;2023-04-05T07:53:35;23.83;;;14.90;;
809;SDS011;387;48.772;9.186;2023-04-05T07:56:05;22.10;;;11.73;;
809;SDS011;387;48.772;9.186;2023-04-05T07:58:32;23.53;;;12.40;;
809;SDS011;387;48.772;9.186;2023-04-05T08:00:59;25.83;;;12.23;;
809;SDS011;387;48.772;9.186;2023-04-05T08:03:25;21.87;;;13.40;;
809;SDS011;387;48.772;9.186;2023-04-05T08:05:51;23.97;;;12.17;;
809;SDS011;387;48.772;9.186;2023-04-05T08:08:17;20.67;;;11.93;;
809;SDS011;387;48.772;9.186;2023-04-05T08:10:42;20.30;;;12.90;;
809;SDS011;387;48.772;9.186;2023-04-05T08:13:08;25.20;;;12.30;;
809;SDS011;387;48.772;9.186;2023-04-05T08:15:33;22.90;;;13.03;;
809;SDS011;387;48.772;9.186;2023-04-05T08:17:59;26.20;;;13.80;;
809;SDS011;387;48.772;9.186;2023-04-05T08:20:25;22.70;;;12.60;;
809;SDS011;387;48.772;9.186;2023-04-05T08:22:50;24.87;;;13.10;;
809;SDS011;387;48.772;9.186;2023-04-05T08:25:16;28.03;;;12.23;;
809;SDS011;387;48.772;9.186;2023-04-05T08:27:42;21.80;;;11.80;;
809;SDS011;387;48.772;9.186;2023-04-05T08:30:07;20.23;;;10.90;;
809;SDS011;387;48.772;9.186;2023-04-05T08:32:34;21.17;;;11.50;;
809;SDS011;387;48.772;9.186;2023-04-05T08:34:59;23.43;;;11.53;;
809;SDS011;387;48.772;9.186;2023-04-05T08:37:25;22.77;;;12.03;;
809;SDS011;387;48.772;9.186;2023-04-05T08:39:51;22.80;;;12.37;;
809;SDS011;387;48.772;9.186;2023-04-05T08:42:18;19.23;;;11.77;;
809;SDS011;387;48.772;9.186;2023-04-05T08:44:52;19.07;;;10.50;;
809;SDS011;387;48.772;9.186;2023-04-05T08:47:21;15.20;;;9.30;;
809;SDS011;387;48.772;9.186;2023-04-05T08:49:47;17.30;;;10.60;;
809;SDS011;387;48.772;9.186;2023-04-05T08:52:13;20.33;;;11.53;;
809;SDS011;387;48.772;9.186;2023-04-05T08:54:39;17.77;;;10.63;;
809;SDS011;387;48.772;9.186;2023-04-05T08:57:06;16.07;;;9.70;;
809;SDS011;387;48.772;9.186;2023-04-05T08:59:32;20.87;;;9.30;;
809;SDS011;387;48.772;9.186;2023-04-05T09:02:02;14.10;;;8.70;;
809;SDS011;387;48.772;9.186;2023-04-05T09:04:31;22.13;;;10.00;;
809;SDS011;387;48.772;9.186;2023-04-05T09:07:03;15.73;;;8.87;;
809;SDS011;387;48.772;9.186;2023-04-05T09:09:32;13.83;;;9.10;;
809;SDS011;387;48.772;9.186;2023-04-05T09:12:04;12.73;;;7.83;;
809;SDS011;387;48.772;9.186;2023-04-05T09:14:32;13.03;;;8.30;;
809;SDS011;387;48.772;9.186;2023-04-05T09:17:00;17.23;;;8.73;;
809;SDS011;387;48.772;9.186;2023-04-05T09:19:27;16.00;;;8.90;;
809;SDS011;387;48.772;9.186;2023-04-05T09:24:32;13.73;;;8.10;;
809;SDS011;387;48.772;9.186;2023-04-05T09:27:10;12.90;;;7.50;;
809;SDS011;387;48.772;9.186;2023-04-05T09:29:41;14.50;;;6.87;;
809;SDS011;387;48.772;9.186;2023-04-05T09:32:09;11.97;;;7.27;;
809;SDS011;387;48.772;9.186;2023-04-05T09:34:36;15.83;;;8.43;;
809;SDS011;387;48.772;9.186;2023-04-05T09:39:44;11.27;;;7.47;;
809;SDS011;387;48.772;9.186;2023-04-05T09:42:11;12.60;;;7.70;;
809;SDS011;387;48.772;9.186;2023-04-05T09:44:52;10.10;;;7.60;;
809;SDS011;387;48.772;9.186;2023-04-05T09:47:19;12.07;;;6.90;;
809;SDS011;387;48.772;9.186;2023-04-05T09:49:45;13.37;;;7.37;;
809;SDS011;387;48.772;9.186;2023-04-05T09:54:53;11.10;;;7.50;;
809;SDS011;387;48.772;9.186;2023-04-05T09:57:24;9.37;;;6.57;;
809;SDS011;387;48.772;9.186;2023-04-05T09:59:54;12.00;;;6.97;;
809;SDS011;387;48.772;9.186;2023-04-05T10:02:20;13.97;;;7.57;;
809;SDS011;387;48.772;9.186;2023-04-05T10:04:46;12.17;;;7.53;;
809;SDS011;387;48.772;9.186;2023-04-05T10:07:13;9.90;;;6.83;;
809;SDS011;387;48.772;9.186;2023-04-05T10:09:40;10.43;;;7.67;;
809;SDS011;387;48.772;9.186;2023-04-05T10:12:07;13.50;;;7.30;;
809;SDS011;387;48.772;9.186;2023-04-05T10:14:35;10.40;;;7.73;;
809;SDS011;387;48.772;9.186;2023-04-05T10:17:08;11.50;;;6.80;;
809;SDS011;387;48.772;9.186;2023-04-05T10:28:41;10.20;;;6.50;;
809;SDS011;387;48.772;9.186;2023-04-05T10:31:11;15.93;;;8.17;;
809;SDS011;387;48.772;9.186;2023-04-05T10:33:54;10.70;;;7.27;;
809;SDS011;387;48.772;9.186;2023-04-05T10:36:44;12.77;;;8.00;;
809;SDS011;387;48.772;9.186;2023-04-05T10:41:52;12.67;;;7.40;;
809;SDS011;387;48.772;9.186;2023-04-05T10:44:21;10.37;;;7.17;;
809;SDS011;387;48.772;9.186;2023-04-05T10:46:47;24.47;;;8.40;;
809;SDS011;387;48.772;9.186;2023-04-05T10:51:42;14.47;;;8.07;;
809;SDS011;387;48.772;9.186;2023-04-05T10:54:09;11.30;;;7.60;;
809;SDS011;387;48.772;9.186;2023-04-05T10:56:36;11.10;;;7.00;;
809;SDS011;387;48.772;9.186;2023-04-05T10:59:02;11.70;;;7.10;;
809;SDS011;387;48.772;9.186;2023-04-05T11:01:29;9.37;;;6.63;;
809;SDS011;387;48.772;9.186;2023-04-05T11:03:55;9.53;;;6.30;;
809;SDS011;387;48.772;9.186;2023-04-05T11:09:14;10.90;;;7.13;;
809;SDS011;387;48.772;9.186;2023-04-05T11:11:41;18.70;;;7.40;;
809;SDS011;387;48.772;9.186;2023-04-05T11:14:18;10.73;;;6.83;;
809;SDS011;387;48.772;9.186;2023-04-05T11:16:59;10.80;;;7.07;;
809;SDS011;387;48.772;9.186;2023-04-05T11:22:12;10.50;;;6.67;;
809;SDS011;387;48.772;9.186;2023-04-05T11:27:25;12.93;;;7.70;;
809;SDS011;387;48.772;9.186;2023-04-05T11:29:55;11.23;;;6.70;;
809;SDS011;387;48.772;9.186;2023-04-05T11:32:23;12.53;;;7.23;;
809;SDS011;387;48.772;9.186;2023-04-05T11:35:05;10.57;;;7.30;;
809;SDS011;387;48.772;9.186;2023-04-05T11:43:02;10.17;;;6.50;;
809;SDS011;387;48.772;9.186;2023-04-05T11:45:32;9.57;;;7.40;;
809;SDS011;387;48.772;9.186;2023-04-05T11:50:32;9.27;;;6.33;;
809;SDS011;387;48.772;9.186;2023-04-05T11:53:11;8.53;;;6.60;;
809;SDS011;387;48.772;9.186;2023-04-05T11:55:39;9.57;;;6.50;;
809;SDS011;387;48.772;9.186;2023-04-05T11:58:16;10.90;;;7.13;;
809;SDS011;387;48.772;9.186;2023-04-05T12:01:04;11.10;;;7.07;;
809;SDS011;387;48.772;9.186;2023-04-05T12:03:32;11.83;;;6.90;;
809;SDS011;387;48.772;9.186;2023-04-05T12:05:58;10.80;;;7.13;;
809;SDS011;387;48.772;9.186;2023-04-05T12:11:05;10.47;;;6.60;;
809;SDS011;387;48.772;9.186;2023-04-05T12:13:33;10.97;;;7.00;;
809;SDS011;387;48.772;9.186;2023-04-05T12:16:02;10.47;;;7.03;;
809;SDS011;387;48.772;9.186;2023-04-05T12:18:30;9.57;;;7.20;;
809;SDS011;387;48.772;9.186;2023-04-05T12:20:57;10.03;;;6.83;;
809;SDS011;387;48.772;9.186;2023-04-05T12:23:23;10.47;;;7.47;;
809;SDS011;387;48.772;9.186;2023-04-05T12:25:50;8.77;;;6.47;;
809;SDS011;387;48.772;9.186;2023-04-05T12:28:18;11.93;;;6.83;;
809;SDS011;387;48.772;9.186;2023-04-05T12:30:47;10.30;;;6.87;;
809;SDS011;387;48.772;9.186;2023-04-05T12:33:14;13.73;;;7.20;;
809;SDS011;387;48.772;9.186;2023-04-05T12:35:40;8.10;;;6.57;;
809;SDS011;387;48.772;9.186;2023-04-05T12:38:05;9.00;;;6.27;;
809;SDS011;387;48.772;9.186;2023-04-05T12:40:35;10.80;;;7.63;;
809;SDS011;387;48.772;9.186;2023-04-05T12:43:05;12.87;;;7.53;;
809;SDS011;387;48.772;9.186;2023-04-05T12:45:32;12.90;;;7.97;;
809;SDS011;387;48.772;9.186;2023-04-05T12:48:03;12.07;;;7.50;;
809;SDS011;387;48.772;9.186;2023-04-05T12:50:52;10.50;;;7.37;;
809;SDS011;387;48.772;9.186;2023-04-05T12:53:22;9.83;;;7.23;;
809;SDS011;387;48.772;9.186;2023-04-05T12:55:55;9.87;;;7.30;;
809;SDS011;387;48.772;9.186;2023-04-05T12:58:22;10.17;;;7.03;;
809;SDS011;387;48.772;9.186;2023-04-05T13:00:58;11.60;;;6.53;;
809;SDS011;387;48.772;9.186;2023-04-05T13:03:24;10.80;;;7.30;;
809;SDS011;387;48.772;9.186;2023-04-05T13:05:50;9.60;;;6.53;;
809;SDS011;387;48.772;9.186;2023-04-05T13:08:16;9.97;;;6.27;;
809;SDS011;387;48.772;9.186;2023-04-05T13:10:43;9.13;;;6.97;;
809;SDS011;387;48.772;9.186;2023-04-05T13:13:10;13.00;;;6.60;;
809;SDS011;387;48.772;9.186;2023-04-05T13:15:37;9.00;;;6.80;;
809;SDS011;387;48.772;9.186;2023-04-05T13:18:03;12.00;;;7.43;;
809;SDS011;387;48.772;9.186;2023-04-05T13:20:29;14.70;;;6.90;;
809;SDS011;387;48.772;9.186;2023-04-05T13:22:55;15.97;;;8.33;;
809;SDS011;387;48.772;9.186;2023-04-05T13:25:20;9.90;;;6.43;;
809;SDS011;387;48.772;9.186;2023-04-05T13:27:46;8.70;;;6.50;;
809;SDS011;387;48.772;9.186;2023-04-05T13:30:12;11.77;;;7.17;;
809;SDS011;387;48.772;9.186;2023-04-05T13:32:38;11.57;;;7.30;;
809;SDS011;387;48.772;9.186;2023-04-05T13:35:04;11.50;;;7.40;;
809;SDS011;387;48.772;9.186;2023-04-05T13:37:30;10.27;;;6.80;;
809;SDS011;387;48.772;9.186;2023-04-05T13:39:55;9.00;;;6.47;;
809;SDS011;387;48.772;9.186;2023-04-05T13:42:21;8.97;;;6.63;;
809;SDS011;387;48.772;9.186;2023-04-05T13:44:48;10.60;;;6.80;;
809;SDS011;387;48.772;9.186;2023-04-05T13:47:13;12.03;;;6.27;;
809;SDS011;387;48.772;9.186;2023-04-05T13:49:40;8.33;;;6.90;;
809;SDS011;387;48.772;9.186;2023-04-05T13:52:06;10.33;;;7.17;;
809;SDS011;387;48.772;9.186;2023-04-05T13:54:32;12.07;;;7.50;;
809;SDS011;387;48.772;9.186;2023-04-05T13:56:57;15.23;;;7.20;;
809;SDS011;387;48.772;9.186;2023-04-05T13:59:23;11.90;;;7.20;;
809;SDS011;387;48.772;9.186;2023-04-05T14:01:50;11.70;;;7.53;;
809;SDS011;387;48.772;9.186;2023-04-05T14:04:15;9.90;;;6.67;;
809;SDS011;387;48.772;9.186;2023-04-05T14:06:41;12.67;;;8.10;;
809;SDS011;387;48.772;9.186;2023-04-05T14:09:07;9.37;;;6.93;;
809;SDS011;387;48.772;9.186;2023-04-05T14:11:34;11.90;;;7.40;;
809;SDS011;387;48.772;9.186;2023-04-05T14:14:00;9.63;;;7.33;;
809;SDS011;387;48.772;9.186;2023-04-05T14:16:26;10.67;;;7.40;;
809;SDS011;387;48.772;9.186;2023-04-05T14:18:52;11.27;;;6.90;;
809;SDS011;387;48.772;9.186;2023-04-05T14:21:18;14.40;;;7.00;;
809;SDS011;387;48.772;9.186;2023-04-05T14:23:44;10.50;;;7.60;;
809;SDS011;387;48.772;9.186;2023-04-05T14:26:10;11.80;;;7.43;;
809;SDS011;387;48.772;9.186;2023-04-05T14:28:36;12.60;;;8.00;;
809;SDS011;387;48.772;9.186;2023-04-05T14:31:01;11.90;;;6.70;;
809;SDS011;387;48.772;9.186;2023-04-05T14:33:27;11.80;;;6.80;;
809;SDS011;387;48.772;9.186;2023-04-05T14:35:53;10.93;;;6.67;;
809;SDS011;387;48.772;9.186;2023-04-05T14:38:18;11.20;;;7.53;;
809;SDS011;387;48.772;9.186;2023-04-05T14:40:44;9.80;;;7.00;;
809;SDS011;387;48.772;9.186;2023-04-05T14:43:10;10.87;;;7.20;;
809;SDS011;387;48.772;9.186;2023-04-05T14:45:36;10.83;;;7.20;;
809;SDS011;387;48.772;9.186;2023-04-05T14:48:01;8.70;;;7.00;;
809;SDS011;387;48.772;9.186;2023-04-05T14:50:27;9.90;;;6.50;;
809;SDS011;387;48.772;9.186;2023-04-05T14:52:56;14.50;;;7.80;;
809;SDS011;387;48.772;9.186;2023-04-05T14:55:25;13.47;;;7.50;;
809;SDS011;387;48.772;9.186;2023-04-05T14:57:51;12.53;;;8.00;;
809;SDS011;387;48.772;9.186;2023-04-05T15:00:17;11.80;;;7.73;;
809;SDS011;387;48.772;9.186;2023-04-05T15:02:43;10.47;;;7.13;;
809;SDS011;387;48.772;9.186;2023-04-05T15:05:10;11.57;;;7.67;;
809;SDS011;387;48.772;9.186;2023-04-05T15:07:36;10.37;;;7.27;;
809;SDS011;387;48.772;9.186;2023-04-05T15:10:01;10.13;;;7.60;;
809;SDS011;387;48.772;9.186;2023-04-05T15:12:28;9.27;;;6.00;;
809;SDS011;387;48.772;9.186;2023-04-05T15:14:53;13.83;;;7.23;;
809;SDS011;387;48.772;9.186;2023-04-05T15:17:20;10.80;;;7.40;;
809;SDS011;387;48.772;9.186;2023-04-05T15:19:45;11.73;;;7.60;;
809;SDS011;387;48.772;9.186;2023-04-05T15:22:11;10.70;;;7.17;;
809;SDS011;387;48.772;9.186;2023-04-05T15:24:38;12.27;;;7.27;;
809;SDS011;387;48.772;9.186;2023-04-05T15:27:07;13.30;;;7.87;;
809;SDS011;387;48.772;9.186;2023-04-05T15:29:33;10.60;;;7.57;;
809;SDS011;387;48.772;9.186;2023-04-05T15:31:59;15.00;;;7.40;;
809;SDS011;387;48.772;9.186;2023-04-05T15:34:25;8.63;;;7.10;;
809;SDS011;387;48.772;9.186;2023-04-05T15:36:51;12.37;;;6.47;;
809;SDS011;387;48.772;9.186;2023-04-05T15:39:18;8.17;;;6.37;;
809;SDS011;387;48.772;9.186;2023-04-05T15:41:44;9.30;;;6.50;;
809;SDS011;387;48.772;9.186;2023-04-05T15:44:10;11.13;;;6.53;;
809;SDS011;387;48.772;9.186;2023-04-05T15:46:36;9.03;;;7.00;;
809;SDS011;387;48.772;9.186;2023-04-05T15:49:02;8.73;;;6.40;;
809;SDS011;387;48.772;9.186;2023-04-05T15:51:27;7.87;;;6.90;;
809;SDS011;387;48.772;9.186;2023-04-05T15:53:53;10.03;;;6.90;;
809;SDS011;387;48.772;9.186;2023-04-05T15:56:19;8.47;;;6.47;;
809;SDS011;387;48.772;9.186;2023-04-05T15:58:45;11.47;;;7.50;;
809;SDS011;387;48.772;9.186;2023-04-05T16:01:10;9.13;;;6.73;;
809;SDS011;387;48.772;9.186;2023-04-05T16:03:36;8.17;;;5.83;;
809;SDS011;387;48.772;9.186;2023-04-05T16:06:02;9.47;;;6.80;;
809;SDS011;387;48.772;9.186;2023-04-05T16:08:28;10.73;;;6.67;;
809;SDS011;387;48.772;9.186;2023-04-05T16:10:54;10.10;;;6.27;;
809;SDS011;387;48.772;9.186;2023-04-05T16:13:20;9.10;;;6.53;;
809;SDS011;387;48.772;9.186;2023-04-05T16:15:45;9.97;;;6.17;;
809;SDS011;387;48.772;9.186;2023-04-05T16:18:11;10.50;;;6.27;;
809;SDS011;387;48.772;9.186;2023-04-05T16:20:38;11.43;;;7.00;;
809;SDS011;387;48.772;9.186;2023-04-05T16:23:05;12.47;;;7.00;;